sensor_id;sensor_type;location;lat;lon;timestamp;temperature;humidity
11214;DHT22;5664;48.606;13.456;2023-01-10T00:00:44;26.90;73.00
11214;DHT22;5664;48.606;13.456;2023-01-10T00:03:09;27.00;72.40
11214;DHT22;5664;48.606;13.456;2023-01-10T00:05:35;27.10;71.30
11214;DHT22;5664;48.606;13.456;2023-01-10T00:08:01;27.10;71.30
11214;DHT22;5664;48.606;13.456;2023-01-10T00:10:28;27.10;70.80
11214;DHT22;5664;48.606;13.456;2023-01-10T00:12:53;27.20;70.40
11214;DHT22;5664;48.606;13.456;2023-01-10T00:15:37;27.20;71.30
11214;DHT22;5664;48.606;13.456;2023-01-10T00:18:03;27.30;71.00
11214;DHT22;5664;48.606;13.456;2023-01-10T00:20:29;27.30;71.60
11214;DHT22;5664;48.606;13.456;2023-01-10T00:22:54;27.30;70.80
11214;DHT22;5664;48.606;13.456;2023-01-10T00:25:20;27.20;70.20
11214;DHT22;5664;48.606;13.456;2023-01-10T00:27:46;27.10;70.40
11214;DHT22;5664;48.606;13.456;2023-01-10T00:30:14;27.10;70.30
11214;DHT22;5664;48.606;13.456;2023-01-10T00:32:42;27.20;70.00
11214;DHT22;5664;48.606;13.456;2023-01-10T00:35:08;27.20;69.50
11214;DHT22;5664;48.606;13.456;2023-01-10T00:37:34;27.20;69.00
11214;DHT22;5664;48.606;13.456;2023-01-10T00:39:59;27.20;68.90
11214;DHT22;5664;48.606;13.456;2023-01-10T00:42:25;27.20;68.60
11214;DHT22;5664;48.606;13.456;2023-01-10T00:45:09;27.20;68.40
11214;DHT22;5664;48.606;13.456;2023-01-10T00:47:36;27.30;68.20
11214;DHT22;5664;48.606;13.456;2023-01-10T00:50:02;27.30;68.00
11214;DHT22;5664;48.606;13.456;2023-01-10T00:52:30;27.40;67.90
11214;DHT22;5664;48.606;13.456;2023-01-10T00:54:55;27.40;67.70
11214;DHT22;5664;48.606;13.456;2023-01-10T00:57:20;27.40;67.50
11214;DHT22;5664;48.606;13.456;2023-01-10T00:59:46;27.50;67.20
11214;DHT22;5664;48.606;13.456;2023-01-10T01:02:11;27.50;66.90
11214;DHT22;5664;48.606;13.456;2023-01-10T01:04:37;27.60;66.60
11214;DHT22;5664;48.606;13.456;2023-01-10T01:07:02;27.60;66.30
11214;DHT22;5664;48.606;13.456;2023-01-10T01:09:28;27.70;66.20
11214;DHT22;5664;48.606;13.456;2023-01-10T01:11:54;27.70;66.00
11214;DHT22;5664;48.606;13.456;2023-01-10T01:14:21;27.70;66.10
11214;DHT22;5664;48.606;13.456;2023-01-10T01:16:46;27.60;65.90
11214;DHT22;5664;48.606;13.456;2023-01-10T01:19:12;27.60;66.40
11214;DHT22;5664;48.606;13.456;2023-01-10T01:21:37;27.50;66.60
11214;DHT22;5664;48.606;13.456;2023-01-10T01:24:03;27.40;66.70
11214;DHT22;5664;48.606;13.456;2023-01-10T01:26:28;27.40;67.20
11214;DHT22;5664;48.606;13.456;2023-01-10T01:28:54;27.30;67.10
11214;DHT22;5664;48.606;13.456;2023-01-10T01:31:19;27.30;66.90
11214;DHT22;5664;48.606;13.456;2023-01-10T01:33:45;27.20;66.80
11214;DHT22;5664;48.606;13.456;2023-01-10T01:36:11;27.20;67.00
11214;DHT22;5664;48.606;13.456;2023-01-10T01:38:37;27.20;67.30
11214;DHT22;5664;48.606;13.456;2023-01-10T01:41:03;27.20;67.20
11214;DHT22;5664;48.606;13.456;2023-01-10T01:43:29;27.10;67.20
11214;DHT22;5664;48.606;13.456;2023-01-10T01:45:59;27.10;67.30
11214;DHT22;5664;48.606;13.456;2023-01-10T01:48:35;27.10;67.20
11214;DHT22;5664;48.606;13.456;2023-01-10T01:51:09;27.10;67.10
11214;DHT22;5664;48.606;13.456;2023-01-10T01:53:43;27.10;67.10
11214;DHT22;5664;48.606;13.456;2023-01-10T01:56:12;27.10;67.10
11214;DHT22;5664;48.606;13.456;2023-01-10T01:58:43;27.10;67.10
11214;DHT22;5664;48.606;13.456;2023-01-10T02:01:10;27.10;67.00
11214;DHT22;5664;48.606;13.456;2023-01-10T02:03:36;27.10;67.10
11214;DHT22;5664;48.606;13.456;2023-01-10T02:06:03;27.10;67.10
11214;DHT22;5664;48.606;13.456;2023-01-10T02:08:29;27.10;67.00
11214;DHT22;5664;48.606;13.456;2023-01-10T02:11:07;27.10;67.00
11214;DHT22;5664;48.606;13.456;2023-01-10T02:13:34;27.10;67.00
11214;DHT22;5664;48.606;13.456;2023-01-10T02:16:02;27.10;66.90
11214;DHT22;5664;48.606;13.456;2023-01-10T02:18:27;27.20;66.90
11214;DHT22;5664;48.606;13.456;2023-01-10T02:34:19;27.50;65.60
11214;DHT22;5664;48.606;13.456;2023-01-10T02:42:04;27.70;65.20
11214;DHT22;5664;48.606;13.456;2023-01-10T02:47:01;27.80;64.90
11214;DHT22;5664;48.606;13.456;2023-01-10T02:49:27;27.70;64.70
11214;DHT22;5664;48.606;13.456;2023-01-10T02:51:53;27.60;65.10
11214;DHT22;5664;48.606;13.456;2023-01-10T02:54:19;27.60;65.10
11214;DHT22;5664;48.606;13.456;2023-01-10T03:07:10;27.80;64.60
11214;DHT22;5664;48.606;13.456;2023-01-10T03:12:10;27.80;65.50
11214;DHT22;5664;48.606;13.456;2023-01-10T03:14:37;27.80;65.30
11214;DHT22;5664;48.606;13.456;2023-01-10T03:17:05;27.90;65.50
11214;DHT22;5664;48.606;13.456;2023-01-10T03:19:33;27.90;65.20
11214;DHT22;5664;48.606;13.456;2023-01-10T03:22:00;27.90;64.90
11214;DHT22;5664;48.606;13.456;2023-01-10T03:24:28;27.90;64.90
11214;DHT22;5664;48.606;13.456;2023-01-10T03:26:56;27.90;64.50
11214;DHT22;5664;48.606;13.456;2023-01-10T03:30:25;27.80;65.10
11214;DHT22;5664;48.606;13.456;2023-01-10T03:32:18;27.70;65.30
11214;DHT22;5664;48.606;13.456;2023-01-10T03:34:45;27.80;65.20
11214;DHT22;5664;48.606;13.456;2023-01-10T03:37:19;27.80;65.40
11214;DHT22;5664;48.606;13.456;2023-01-10T03:43:00;27.90;65.30
11214;DHT22;5664;48.606;13.456;2023-01-10T03:45:50;27.90;65.30
11214;DHT22;5664;48.606;13.456;2023-01-10T03:48:19;27.90;65.10
11214;DHT22;5664;48.606;13.456;2023-01-10T03:50:46;28.00;65.30
11214;DHT22;5664;48.606;13.456;2023-01-10T03:53:12;27.90;65.10
11214;DHT22;5664;48.606;13.456;2023-01-10T03:55:38;27.90;65.30
11214;DHT22;5664;48.606;13.456;2023-01-10T03:58:05;27.90;65.20
11214;DHT22;5664;48.606;13.456;2023-01-10T04:00:31;27.90;64.90
11214;DHT22;5664;48.606;13.456;2023-01-10T04:02:57;27.90;64.90
11214;DHT22;5664;48.606;13.456;2023-01-10T04:05:23;27.90;64.80
11214;DHT22;5664;48.606;13.456;2023-01-10T04:07:49;28.00;65.00
11214;DHT22;5664;48.606;13.456;2023-01-10T04:10:14;28.00;65.00
11214;DHT22;5664;48.606;13.456;2023-01-10T04:12:40;28.00;64.90
11214;DHT22;5664;48.606;13.456;2023-01-10T04:15:06;28.00;64.60
11214;DHT22;5664;48.606;13.456;2023-01-10T04:17:31;28.00;65.00
11214;DHT22;5664;48.606;13.456;2023-01-10T04:19:57;27.90;65.10
11214;DHT22;5664;48.606;13.456;2023-01-10T04:22:22;27.90;65.70
11214;DHT22;5664;48.606;13.456;2023-01-10T04:24:48;27.90;65.80
11214;DHT22;5664;48.606;13.456;2023-01-10T04:27:16;27.90;65.60
11214;DHT22;5664;48.606;13.456;2023-01-10T04:29:41;27.90;65.50
11214;DHT22;5664;48.606;13.456;2023-01-10T04:32:07;27.90;64.90
11214;DHT22;5664;48.606;13.456;2023-01-10T04:34:32;27.90;64.50
11214;DHT22;5664;48.606;13.456;2023-01-10T04:36:58;27.80;64.30
11214;DHT22;5664;48.606;13.456;2023-01-10T04:39:23;27.90;64.10
11214;DHT22;5664;48.606;13.456;2023-01-10T04:41:49;27.90;64.00
11214;DHT22;5664;48.606;13.456;2023-01-10T04:44:14;27.90;64.00
11214;DHT22;5664;48.606;13.456;2023-01-10T04:46:40;27.90;64.00
11214;DHT22;5664;48.606;13.456;2023-01-10T04:49:05;28.00;64.10
11214;DHT22;5664;48.606;13.456;2023-01-10T04:51:31;28.00;63.80
11214;DHT22;5664;48.606;13.456;2023-01-10T04:53:57;28.10;64.00
11214;DHT22;5664;48.606;13.456;2023-01-10T04:56:22;28.10;64.00
11214;DHT22;5664;48.606;13.456;2023-01-10T04:58:48;28.10;64.00
11214;DHT22;5664;48.606;13.456;2023-01-10T05:01:15;28.10;64.00
11214;DHT22;5664;48.606;13.456;2023-01-10T05:03:41;28.10;64.10
11214;DHT22;5664;48.606;13.456;2023-01-10T05:06:07;28.10;64.40
11214;DHT22;5664;48.606;13.456;2023-01-10T05:08:32;28.00;64.50
11214;DHT22;5664;48.606;13.456;2023-01-10T05:10:58;28.00;65.10
11214;DHT22;5664;48.606;13.456;2023-01-10T05:13:23;28.00;65.70
11214;DHT22;5664;48.606;13.456;2023-01-10T05:15:52;28.40;64.70
11214;DHT22;5664;48.606;13.456;2023-01-10T05:18:17;29.50;62.80
11214;DHT22;5664;48.606;13.456;2023-01-10T05:20:43;30.40;60.40
11214;DHT22;5664;48.606;13.456;2023-01-10T05:23:08;31.20;59.20
11214;DHT22;5664;48.606;13.456;2023-01-10T05:25:34;31.60;58.40
11214;DHT22;5664;48.606;13.456;2023-01-10T05:27:59;31.90;58.20
11214;DHT22;5664;48.606;13.456;2023-01-10T05:30:25;32.50;57.40
11214;DHT22;5664;48.606;13.456;2023-01-10T12:04:40;24.70;82.10
11214;DHT22;5664;48.606;13.456;2023-01-10T12:12:10;24.50;82.50
11214;DHT22;5664;48.606;13.456;2023-01-10T12:14:38;24.50;82.80
11214;DHT22;5664;48.606;13.456;2023-01-10T12:17:03;24.50;83.10
11214;DHT22;5664;48.606;13.456;2023-01-10T12:21:57;24.40;82.80
11214;DHT22;5664;48.606;13.456;2023-01-10T12:24:25;24.50;83.30
11214;DHT22;5664;48.606;13.456;2023-01-10T12:26:52;24.40;83.70
11214;DHT22;5664;48.606;13.456;2023-01-10T12:29:19;24.40;83.70
11214;DHT22;5664;48.606;13.456;2023-01-10T12:31:46;24.40;76.80
11214;DHT22;5664;48.606;13.456;2023-01-10T12:34:16;24.60;76.50
11214;DHT22;5664;48.606;13.456;2023-01-10T12:44:27;29.90;66.60
11214;DHT22;5664;48.606;13.456;2023-01-10T12:47:04;30.80;64.20
11214;DHT22;5664;48.606;13.456;2023-01-10T12:49:31;31.40;63.00
11214;DHT22;5664;48.606;13.456;2023-01-10T12:52:00;31.90;63.00
11214;DHT22;5664;48.606;13.456;2023-01-10T12:54:27;32.20;62.10
11214;DHT22;5664;48.606;13.456;2023-01-10T12:56:53;32.30;62.10
11214;DHT22;5664;48.606;13.456;2023-01-10T12:59:30;32.40;63.10
11214;DHT22;5664;48.606;13.456;2023-01-10T13:02:01;32.50;62.10
11214;DHT22;5664;48.606;13.456;2023-01-10T13:04:29;32.70;61.90
11214;DHT22;5664;48.606;13.456;2023-01-10T13:06:55;32.80;62.60
11214;DHT22;5664;48.606;13.456;2023-01-10T13:09:23;33.00;62.80
11214;DHT22;5664;48.606;13.456;2023-01-10T13:12:09;33.00;62.60
11214;DHT22;5664;48.606;13.456;2023-01-10T13:14:41;33.10;61.90
11214;DHT22;5664;48.606;13.456;2023-01-10T13:22:53;33.20;61.50
11214;DHT22;5664;48.606;13.456;2023-01-10T13:27:53;33.30;61.40
11214;DHT22;5664;48.606;13.456;2023-01-10T13:30:23;33.40;61.10
11214;DHT22;5664;48.606;13.456;2023-01-10T13:32:53;33.40;61.20
11214;DHT22;5664;48.606;13.456;2023-01-10T13:35:21;33.40;61.00
11214;DHT22;5664;48.606;13.456;2023-01-10T13:37:50;33.40;61.30
11214;DHT22;5664;48.606;13.456;2023-01-10T13:40:21;33.40;61.20
11214;DHT22;5664;48.606;13.456;2023-01-10T13:43:06;33.40;61.00
11214;DHT22;5664;48.606;13.456;2023-01-10T13:45:45;33.40;61.60
11214;DHT22;5664;48.606;13.456;2023-01-10T13:48:23;33.30;61.50
11214;DHT22;5664;48.606;13.456;2023-01-10T13:50:51;33.30;62.60
11214;DHT22;5664;48.606;13.456;2023-01-10T14:01:02;33.10;62.50
11214;DHT22;5664;48.606;13.456;2023-01-10T14:03:50;33.00;64.10
11214;DHT22;5664;48.606;13.456;2023-01-10T14:08:52;32.80;62.90
11214;DHT22;5664;48.606;13.456;2023-01-10T14:11:18;32.60;63.20
11214;DHT22;5664;48.606;13.456;2023-01-10T14:13:46;32.50;63.70
11214;DHT22;5664;48.606;13.456;2023-01-10T14:21:40;32.00;64.50
11214;DHT22;5664;48.606;13.456;2023-01-10T14:24:14;31.90;65.70
11214;DHT22;5664;48.606;13.456;2023-01-10T14:26:44;31.70;66.60
11214;DHT22;5664;48.606;13.456;2023-01-10T14:29:13;31.40;66.50
11214;DHT22;5664;48.606;13.456;2023-01-10T14:31:58;31.10;67.60
11214;DHT22;5664;48.606;13.456;2023-01-10T14:34:25;30.90;67.90
11214;DHT22;5664;48.606;13.456;2023-01-10T14:36:56;30.70;67.50
11214;DHT22;5664;48.606;13.456;2023-01-10T14:39:22;30.50;67.60
11214;DHT22;5664;48.606;13.456;2023-01-10T14:41:48;30.20;68.50
11214;DHT22;5664;48.606;13.456;2023-01-10T14:44:17;30.00;69.10
11214;DHT22;5664;48.606;13.456;2023-01-10T14:49:20;29.60;70.20
11214;DHT22;5664;48.606;13.456;2023-01-10T14:51:46;29.40;70.50
11214;DHT22;5664;48.606;13.456;2023-01-10T14:54:15;29.20;70.90
11214;DHT22;5664;48.606;13.456;2023-01-10T14:56:43;29.10;71.30
11214;DHT22;5664;48.606;13.456;2023-01-10T14:59:22;29.00;72.30
11214;DHT22;5664;48.606;13.456;2023-01-10T15:01:48;28.80;73.10
11214;DHT22;5664;48.606;13.456;2023-01-10T15:04:15;28.70;73.20
11214;DHT22;5664;48.606;13.456;2023-01-10T15:07:00;28.60;72.90
11214;DHT22;5664;48.606;13.456;2023-01-10T15:09:27;28.50;72.60
11214;DHT22;5664;48.606;13.456;2023-01-10T15:11:53;28.40;72.40
11214;DHT22;5664;48.606;13.456;2023-01-10T15:14:19;28.30;72.50
11214;DHT22;5664;48.606;13.456;2023-01-10T15:16:47;28.30;72.50
11214;DHT22;5664;48.606;13.456;2023-01-10T15:19:14;28.30;72.60
11214;DHT22;5664;48.606;13.456;2023-01-10T15:21:41;28.60;73.10
11214;DHT22;5664;48.606;13.456;2023-01-10T15:24:23;28.20;72.90
11214;DHT22;5664;48.606;13.456;2023-01-10T15:26:51;28.10;73.00
11214;DHT22;5664;48.606;13.456;2023-01-10T15:29:20;28.10;73.10
11214;DHT22;5664;48.606;13.456;2023-01-10T15:31:46;28.10;72.70
11214;DHT22;5664;48.606;13.456;2023-01-10T15:34:16;28.00;73.10
11214;DHT22;5664;48.606;13.456;2023-01-10T15:36:50;28.00;72.80
11214;DHT22;5664;48.606;13.456;2023-01-10T15:41:42;27.90;72.70
11214;DHT22;5664;48.606;13.456;2023-01-10T15:44:20;27.90;73.10
11214;DHT22;5664;48.606;13.456;2023-01-10T15:46:53;27.90;73.30
11214;DHT22;5664;48.606;13.456;2023-01-10T15:49:20;27.90;73.40
11214;DHT22;5664;48.606;13.456;2023-01-10T15:51:46;27.90;73.40
11214;DHT22;5664;48.606;13.456;2023-01-10T15:56:41;27.90;73.40
11214;DHT22;5664;48.606;13.456;2023-01-10T16:04:41;27.80;74.10
11214;DHT22;5664;48.606;13.456;2023-01-10T16:09:46;27.80;74.20
11214;DHT22;5664;48.606;13.456;2023-01-10T16:12:26;27.70;74.30
11214;DHT22;5664;48.606;13.456;2023-01-10T16:15:13;27.70;74.20
11214;DHT22;5664;48.606;13.456;2023-01-10T16:17:38;27.70;74.40
11214;DHT22;5664;48.606;13.456;2023-01-10T16:20:04;27.70;74.50
11214;DHT22;5664;48.606;13.456;2023-01-10T16:22:29;27.70;74.60
11214;DHT22;5664;48.606;13.456;2023-01-10T16:24:56;27.70;74.60
11214;DHT22;5664;48.606;13.456;2023-01-10T16:27:21;27.60;74.80
11214;DHT22;5664;48.606;13.456;2023-01-10T16:29:47;27.60;74.80
11214;DHT22;5664;48.606;13.456;2023-01-10T16:32:12;27.60;74.80
11214;DHT22;5664;48.606;13.456;2023-01-10T16:34:38;27.60;75.00
11214;DHT22;5664;48.606;13.456;2023-01-10T16:37:04;27.60;75.30
11214;DHT22;5664;48.606;13.456;2023-01-10T16:39:29;27.60;75.00
11214;DHT22;5664;48.606;13.456;2023-01-10T16:41:54;27.60;75.10
11214;DHT22;5664;48.606;13.456;2023-01-10T16:44:38;27.60;75.30
11214;DHT22;5664;48.606;13.456;2023-01-10T16:47:05;27.50;75.10
11214;DHT22;5664;48.606;13.456;2023-01-10T16:49:31;27.60;76.30
11214;DHT22;5664;48.606;13.456;2023-01-10T16:51:56;27.60;75.70
11214;DHT22;5664;48.606;13.456;2023-01-10T16:54:22;27.50;75.60
11214;DHT22;5664;48.606;13.456;2023-01-10T16:56:50;27.60;75.70
11214;DHT22;5664;48.606;13.456;2023-01-10T16:59:15;27.60;75.70
11214;DHT22;5664;48.606;13.456;2023-01-10T17:01:44;27.60;75.60
11214;DHT22;5664;48.606;13.456;2023-01-10T17:04:11;27.50;75.40
11214;DHT22;5664;48.606;13.456;2023-01-10T17:06:39;27.50;75.50
11214;DHT22;5664;48.606;13.456;2023-01-10T17:09:06;27.40;75.60
11214;DHT22;5664;48.606;13.456;2023-01-10T17:11:33;27.50;75.60
11214;DHT22;5664;48.606;13.456;2023-01-10T17:14:02;27.50;75.90
11214;DHT22;5664;48.606;13.456;2023-01-10T17:16:28;27.50;77.00
11214;DHT22;5664;48.606;13.456;2023-01-10T17:18:53;27.50;75.20
11214;DHT22;5664;48.606;13.456;2023-01-10T17:21:19;27.50;75.10
11214;DHT22;5664;48.606;13.456;2023-01-10T17:23:45;27.50;75.00
11214;DHT22;5664;48.606;13.456;2023-01-10T17:26:12;27.50;75.20
11214;DHT22;5664;48.606;13.456;2023-01-10T17:28:37;27.50;75.30
11214;DHT22;5664;48.606;13.456;2023-01-10T17:31:03;27.40;75.30
11214;DHT22;5664;48.606;13.456;2023-01-10T17:33:28;27.40;75.70
11214;DHT22;5664;48.606;13.456;2023-01-10T17:35:54;27.30;75.90
11214;DHT22;5664;48.606;13.456;2023-01-10T17:38:21;27.20;75.90
11214;DHT22;5664;48.606;13.456;2023-01-10T17:40:47;27.20;75.90
11214;DHT22;5664;48.606;13.456;2023-01-10T17:43:13;27.30;76.10
11214;DHT22;5664;48.606;13.456;2023-01-10T17:45:42;27.20;76.40
11214;DHT22;5664;48.606;13.456;2023-01-10T17:48:08;27.30;76.50
11214;DHT22;5664;48.606;13.456;2023-01-10T17:50:34;27.30;76.70
11214;DHT22;5664;48.606;13.456;2023-01-10T17:53:00;27.30;77.00
11214;DHT22;5664;48.606;13.456;2023-01-10T17:55:26;27.40;77.40
11214;DHT22;5664;48.606;13.456;2023-01-10T17:57:51;27.40;77.60
11214;DHT22;5664;48.606;13.456;2023-01-10T18:00:17;27.50;44.90
11214;DHT22;5664;48.606;13.456;2023-01-10T18:02:43;27.40;45.10
11214;DHT22;5664;48.606;13.456;2023-01-10T18:05:08;27.40;45.00
11214;DHT22;5664;48.606;13.456;2023-01-10T18:07:34;27.30;45.20
11214;DHT22;5664;48.606;13.456;2023-01-10T18:09:59;27.20;45.50
11214;DHT22;5664;48.606;13.456;2023-01-10T18:12:25;27.10;45.80
11214;DHT22;5664;48.606;13.456;2023-01-10T18:14:50;27.00;46.00
11214;DHT22;5664;48.606;13.456;2023-01-10T18:17:15;26.90;46.00
11214;DHT22;5664;48.606;13.456;2023-01-10T18:19:44;27.00;46.00
11214;DHT22;5664;48.606;13.456;2023-01-10T18:22:09;27.00;45.90
11214;DHT22;5664;48.606;13.456;2023-01-10T18:24:54;27.00;45.80
11214;DHT22;5664;48.606;13.456;2023-01-10T18:27:21;27.10;45.80
11214;DHT22;5664;48.606;13.456;2023-01-10T18:29:47;27.10;45.70
11214;DHT22;5664;48.606;13.456;2023-01-10T18:32:12;27.10;45.60
11214;DHT22;5664;48.606;13.456;2023-01-10T18:34:38;27.10;45.50
11214;DHT22;5664;48.606;13.456;2023-01-10T18:37:03;27.10;45.50
11214;DHT22;5664;48.606;13.456;2023-01-10T18:39:29;27.10;45.40
11214;DHT22;5664;48.606;13.456;2023-01-10T18:41:54;27.20;45.40
11214;DHT22;5664;48.606;13.456;2023-01-10T18:44:21;27.10;45.30
11214;DHT22;5664;48.606;13.456;2023-01-10T18:46:47;27.20;45.30
11214;DHT22;5664;48.606;13.456;2023-01-10T18:49:12;27.20;45.20
11214;DHT22;5664;48.606;13.456;2023-01-10T18:51:38;27.20;45.20
11214;DHT22;5664;48.606;13.456;2023-01-10T18:54:03;27.20;45.10
11214;DHT22;5664;48.606;13.456;2023-01-10T18:56:31;27.20;45.20
11214;DHT22;5664;48.606;13.456;2023-01-10T18:58:56;27.10;45.30
11214;DHT22;5664;48.606;13.456;2023-01-10T19:01:23;26.90;45.50
11214;DHT22;5664;48.606;13.456;2023-01-10T19:03:49;26.90;45.70
11214;DHT22;5664;48.606;13.456;2023-01-10T19:06:15;26.80;45.70
11214;DHT22;5664;48.606;13.456;2023-01-10T19:08:41;26.80;45.70
11214;DHT22;5664;48.606;13.456;2023-01-10T19:11:07;26.80;45.60
11214;DHT22;5664;48.606;13.456;2023-01-10T19:13:33;26.90;45.60
11214;DHT22;5664;48.606;13.456;2023-01-10T19:18:36;27.00;45.40
11214;DHT22;5664;48.606;13.456;2023-01-10T19:21:01;27.00;45.20
11214;DHT22;5664;48.606;13.456;2023-01-10T19:23:26;27.10;45.20
11214;DHT22;5664;48.606;13.456;2023-01-10T19:25:56;27.10;45.10
11214;DHT22;5664;48.606;13.456;2023-01-10T19:28:21;27.10;45.00
11214;DHT22;5664;48.606;13.456;2023-01-10T19:30:50;27.20;45.00
11214;DHT22;5664;48.606;13.456;2023-01-10T19:33:16;27.20;44.90
11214;DHT22;5664;48.606;13.456;2023-01-10T19:35:41;27.20;44.90
11214;DHT22;5664;48.606;13.456;2023-01-10T19:38:06;27.20;44.80
11214;DHT22;5664;48.606;13.456;2023-01-10T19:40:32;27.20;44.70
11214;DHT22;5664;48.606;13.456;2023-01-10T19:42:58;27.30;44.80
11214;DHT22;5664;48.606;13.456;2023-01-10T19:45:23;27.20;44.70
11214;DHT22;5664;48.606;13.456;2023-01-10T19:47:49;27.20;44.70
11214;DHT22;5664;48.606;13.456;2023-01-10T19:50:14;27.30;44.80
11214;DHT22;5664;48.606;13.456;2023-01-10T19:52:40;27.30;44.70
11214;DHT22;5664;48.606;13.456;2023-01-10T19:55:05;27.30;44.60
11214;DHT22;5664;48.606;13.456;2023-01-10T19:57:31;27.30;44.60
11214;DHT22;5664;48.606;13.456;2023-01-10T19:59:56;27.30;44.60
11214;DHT22;5664;48.606;13.456;2023-01-10T20:02:22;27.20;44.70
11214;DHT22;5664;48.606;13.456;2023-01-10T20:04:49;27.10;45.50
11214;DHT22;5664;48.606;13.456;2023-01-10T20:07:14;26.90;45.10
11214;DHT22;5664;48.606;13.456;2023-01-10T20:09:40;26.80;45.40
11214;DHT22;5664;48.606;13.456;2023-01-10T20:12:05;26.70;45.40
11214;DHT22;5664;48.606;13.456;2023-01-10T20:14:31;26.70;45.60
11214;DHT22;5664;48.606;13.456;2023-01-10T20:16:56;26.60;45.60
11214;DHT22;5664;48.606;13.456;2023-01-10T20:19:22;26.60;45.70
11214;DHT22;5664;48.606;13.456;2023-01-10T20:21:48;26.60;45.70
11214;DHT22;5664;48.606;13.456;2023-01-10T20:24:14;26.60;45.70
11214;DHT22;5664;48.606;13.456;2023-01-10T20:26:41;26.60;45.70
11214;DHT22;5664;48.606;13.456;2023-01-10T20:29:07;26.50;45.60
11214;DHT22;5664;48.606;13.456;2023-01-10T20:31:32;26.60;45.70
11214;DHT22;5664;48.606;13.456;2023-01-10T20:33:58;26.50;45.70
11214;DHT22;5664;48.606;13.456;2023-01-10T20:36:24;26.50;45.70
11214;DHT22;5664;48.606;13.456;2023-01-10T20:38:50;26.50;45.80
11214;DHT22;5664;48.606;13.456;2023-01-10T20:43:41;26.40;46.00
11214;DHT22;5664;48.606;13.456;2023-01-10T20:46:08;26.20;46.00
11214;DHT22;5664;48.606;13.456;2023-01-10T20:48:35;26.10;46.20
11214;DHT22;5664;48.606;13.456;2023-01-10T20:51:00;26.10;46.40
11214;DHT22;5664;48.606;13.456;2023-01-10T20:53:26;26.00;46.50
11214;DHT22;5664;48.606;13.456;2023-01-10T20:55:52;25.90;46.70
11214;DHT22;5664;48.606;13.456;2023-01-10T20:58:17;25.90;46.70
11214;DHT22;5664;48.606;13.456;2023-01-10T21:00:43;25.80;46.80
11214;DHT22;5664;48.606;13.456;2023-01-10T21:03:08;25.80;46.90
11214;DHT22;5664;48.606;13.456;2023-01-10T21:05:33;25.80;47.00
11214;DHT22;5664;48.606;13.456;2023-01-10T21:08:01;25.70;47.00
11214;DHT22;5664;48.606;13.456;2023-01-10T21:10:26;25.70;47.10
11214;DHT22;5664;48.606;13.456;2023-01-10T21:12:51;25.60;47.10
11214;DHT22;5664;48.606;13.456;2023-01-10T21:15:17;25.70;47.20
11214;DHT22;5664;48.606;13.456;2023-01-10T21:17:42;25.60;47.20
11214;DHT22;5664;48.606;13.456;2023-01-10T21:20:08;25.60;47.30
11214;DHT22;5664;48.606;13.456;2023-01-10T21:22:34;25.60;47.40
11214;DHT22;5664;48.606;13.456;2023-01-10T21:25:00;25.50;47.50
11214;DHT22;5664;48.606;13.456;2023-01-10T21:27:25;25.50;47.50
11214;DHT22;5664;48.606;13.456;2023-01-10T21:29:55;25.40;47.60
11214;DHT22;5664;48.606;13.456;2023-01-10T21:32:21;25.40;47.70
11214;DHT22;5664;48.606;13.456;2023-01-10T21:34:47;25.30;47.80
11214;DHT22;5664;48.606;13.456;2023-01-10T21:37:12;25.30;47.90
11214;DHT22;5664;48.606;13.456;2023-01-10T21:39:38;25.20;48.00
11214;DHT22;5664;48.606;13.456;2023-01-10T21:42:03;25.10;48.00
11214;DHT22;5664;48.606;13.456;2023-01-10T21:44:47;25.90;49.30
11214;DHT22;5664;48.606;13.456;2023-01-10T21:47:13;25.00;48.20
11214;DHT22;5664;48.606;13.456;2023-01-10T21:49:38;25.00;48.30
11214;DHT22;5664;48.606;13.456;2023-01-10T21:52:03;25.00;48.40
11214;DHT22;5664;48.606;13.456;2023-01-10T21:54:29;24.90;48.40
11214;DHT22;5664;48.606;13.456;2023-01-10T21:56:56;24.90;48.50
11214;DHT22;5664;48.606;13.456;2023-01-10T21:59:21;24.90;48.50
11214;DHT22;5664;48.606;13.456;2023-01-10T22:01:47;24.90;48.50
11214;DHT22;5664;48.606;13.456;2023-01-10T22:04:12;24.90;48.60
11214;DHT22;5664;48.606;13.456;2023-01-10T22:06:38;24.80;48.60
11214;DHT22;5664;48.606;13.456;2023-01-10T22:09:03;24.80;48.60
11214;DHT22;5664;48.606;13.456;2023-01-10T22:11:29;24.70;48.60
11214;DHT22;5664;48.606;13.456;2023-01-10T22:13:54;24.80;48.80
11214;DHT22;5664;48.606;13.456;2023-01-10T22:16:21;24.70;48.80
11214;DHT22;5664;48.606;13.456;2023-01-10T22:18:47;24.70;48.90
11214;DHT22;5664;48.606;13.456;2023-01-10T22:21:13;24.60;48.90
11214;DHT22;5664;48.606;13.456;2023-01-10T22:23:39;24.60;49.00
11214;DHT22;5664;48.606;13.456;2023-01-10T22:26:08;24.60;49.10
11214;DHT22;5664;48.606;13.456;2023-01-10T22:28:34;24.60;49.10
11214;DHT22;5664;48.606;13.456;2023-01-10T22:31:00;24.50;49.10
11214;DHT22;5664;48.606;13.456;2023-01-10T22:33:26;24.50;49.10
11214;DHT22;5664;48.606;13.456;2023-01-10T22:35:52;24.50;49.20
11214;DHT22;5664;48.606;13.456;2023-01-10T22:38:18;24.40;49.20
11214;DHT22;5664;48.606;13.456;2023-01-10T22:40:43;24.40;49.20
11214;DHT22;5664;48.606;13.456;2023-01-10T22:43:09;24.40;49.20
11214;DHT22;5664;48.606;13.456;2023-01-10T22:45:34;24.40;49.30
11214;DHT22;5664;48.606;13.456;2023-01-10T22:48:01;24.40;49.30
11214;DHT22;5664;48.606;13.456;2023-01-10T22:50:26;24.40;49.40
11214;DHT22;5664;48.606;13.456;2023-01-10T22:52:52;24.30;49.30
11214;DHT22;5664;48.606;13.456;2023-01-10T22:55:17;24.30;49.40
11214;DHT22;5664;48.606;13.456;2023-01-10T22:57:43;24.20;49.50
11214;DHT22;5664;48.606;13.456;2023-01-10T23:00:09;24.20;49.50
11214;DHT22;5664;48.606;13.456;2023-01-10T23:02:34;24.20;49.70
11214;DHT22;5664;48.606;13.456;2023-01-10T23:05:00;24.10;49.60
11214;DHT22;5664;48.606;13.456;2023-01-10T23:07:25;24.00;49.70
11214;DHT22;5664;48.606;13.456;2023-01-10T23:09:50;24.00;49.80
11214;DHT22;5664;48.606;13.456;2023-01-10T23:12:16;23.90;49.80
11214;DHT22;5664;48.606;13.456;2023-01-10T23:14:41;23.90;50.00
11214;DHT22;5664;48.606;13.456;2023-01-10T23:17:07;23.80;50.00
11214;DHT22;5664;48.606;13.456;2023-01-10T23:19:32;23.80;50.10
11214;DHT22;5664;48.606;13.456;2023-01-10T23:21:58;23.80;50.20
11214;DHT22;5664;48.606;13.456;2023-01-10T23:24:23;23.70;50.30
11214;DHT22;5664;48.606;13.456;2023-01-10T23:26:49;23.70;50.40
11214;DHT22;5664;48.606;13.456;2023-01-10T23:29:15;23.60;50.40
11214;DHT22;5664;48.606;13.456;2023-01-10T23:31:40;23.60;50.50
11214;DHT22;5664;48.606;13.456;2023-01-10T23:34:06;23.50;50.50
11214;DHT22;5664;48.606;13.456;2023-01-10T23:36:31;23.50;50.60
11214;DHT22;5664;48.606;13.456;2023-01-10T23:38:57;23.50;50.70